createdAt,value
2022-09-17T00:02:07.605Z,99836.88
2022-09-17T00:05:11.181Z,99847.72
2022-09-17T00:08:16.028Z,99842.75
2022-09-17T00:11:21.789Z,99840.84
2022-09-17T00:14:24.484Z,99850.00
2022-09-17T00:17:28.954Z,99848.78
2022-09-17T00:20:31.726Z,99845.59
2022-09-17T00:23:34.791Z,99858.88
2022-09-17T00:26:37.875Z,99858.72
2022-09-17T00:29:40.896Z,99864.75
2022-09-17T00:32:44.953Z,99868.97
2022-09-17T00:36:00.907Z,99870.81
2022-09-17T00:39:07.974Z,99863.56
2022-09-17T00:42:11.039Z,99866.34
2022-09-17T00:45:14.021Z,99866.28
2022-09-17T00:48:18.759Z,99865.38
2022-09-17T00:51:26.565Z,99855.66
2022-09-17T00:54:30.678Z,99864.13
2022-09-17T00:57:33.470Z,99866.56
2022-09-17T01:00:37.696Z,99870.97
2022-09-17T01:03:41.879Z,99872.72
2022-09-17T01:06:56.774Z,99875.16
2022-09-17T01:10:07.678Z,99869.72
2022-09-17T01:13:22.758Z,99867.66
2022-09-17T01:16:37.114Z,99864.00
2022-09-17T01:20:16.647Z,99856.97
2022-09-17T01:23:41.573Z,99879.31
2022-09-17T01:27:34.934Z,99877.38
2022-09-17T01:31:28.377Z,99879.13
2022-09-17T01:34:41.414Z,99881.47
2022-09-17T01:37:51.768Z,99875.09
2022-09-17T01:41:07.770Z,99867.84
2022-09-17T01:44:16.450Z,99874.41
2022-09-17T01:47:23.903Z,99862.25
2022-09-17T01:50:32.107Z,99867.28
2022-09-17T01:53:42.236Z,99876.47
2022-09-17T01:56:52.019Z,99868.31
2022-09-17T02:00:00.022Z,99870.97
2022-09-17T02:03:07.522Z,99863.53
2022-09-17T02:06:17.382Z,99874.19
2022-09-17T02:09:26.275Z,99867.66
2022-09-17T02:12:34.609Z,99869.41
2022-09-17T02:15:43.815Z,99864.69
2022-09-17T02:18:51.676Z,99872.56
2022-09-17T02:22:04.693Z,99872.56
2022-09-17T02:25:11.642Z,99861.72
2022-09-17T02:28:24.136Z,99864.44
2022-09-17T02:31:27.792Z,99853.84
2022-09-17T02:34:30.777Z,99859.09
2022-09-17T02:37:35.233Z,99854.38
2022-09-17T02:40:47.766Z,99861.00
2022-09-17T02:44:01.204Z,99858.38
2022-09-17T02:47:20.676Z,99854.72
2022-09-17T02:50:31.580Z,99856.63
2022-09-17T02:53:41.677Z,99855.22
2022-09-17T02:56:52.042Z,99865.31
2022-09-17T03:00:03.806Z,99858.81
2022-09-17T03:03:11.436Z,99848.78
2022-09-17T03:06:15.813Z,99855.22
2022-09-17T03:09:19.812Z,99862.78
2022-09-17T03:12:25.868Z,99857.44
2022-09-17T03:15:28.923Z,99856.31
2022-09-17T03:18:31.957Z,99849.13
2022-09-17T03:21:35.217Z,99859.97
2022-09-17T03:24:39.324Z,99863.66
2022-09-17T03:27:42.113Z,99863.66
2022-09-17T03:30:45.114Z,99859.09
2022-09-17T03:33:48.494Z,99857.25
2022-09-17T03:36:51.757Z,99865.56
2022-09-17T03:39:55.808Z,99861.16
2022-09-17T03:42:58.595Z,99865.56
2022-09-17T03:46:01.481Z,99865.63
2022-09-17T03:49:04.911Z,99870.38
2022-09-17T03:52:08.027Z,99864.16
2022-09-17T03:55:12.447Z,99870.28
2022-09-17T03:58:15.539Z,99833.59
2022-09-17T04:01:18.366Z,99875.06
2022-09-17T04:04:21.269Z,99877.63
2022-09-17T04:07:23.966Z,99885.69
2022-09-17T04:10:28.436Z,99888.41
2022-09-17T04:13:31.095Z,99889.50
2022-09-17T04:16:34.227Z,99893.19
2022-09-17T04:19:36.948Z,99879.34
2022-09-17T04:22:39.948Z,99892.72
2022-09-17T04:25:44.336Z,99891.09
2022-09-17T04:28:47.034Z,99899.09
2022-09-17T04:31:49.741Z,99888.25
2022-09-17T04:34:52.868Z,99895.28
2022-09-17T04:37:56.232Z,99901.13
2022-09-17T04:41:00.512Z,99904.94
2022-09-17T04:44:03.788Z,99905.25
2022-09-17T04:47:06.996Z,99910.22
2022-09-17T04:50:11.014Z,99914.75
2022-09-17T04:53:13.685Z,99898.28
2022-09-17T04:56:18.237Z,99914.94
2022-09-17T04:59:21.265Z,99928.56
2022-09-17T05:02:23.988Z,99925.91
2022-09-17T05:05:27.226Z,99934.19
2022-09-17T05:08:29.950Z,99928.00
2022-09-17T05:11:34.643Z,99928.97
2022-09-17T05:14:37.390Z,99935.34
2022-09-17T05:17:40.414Z,99933.56
2022-09-17T05:20:43.925Z,99925.31
2022-09-17T05:23:46.597Z,99925.13
2022-09-17T05:26:51.080Z,99930.47
2022-09-17T05:29:53.729Z,99924.91
2022-09-17T05:33:01.824Z,99932.91
2022-09-17T05:36:04.941Z,99932.16
2022-09-17T05:39:08.231Z,99938.53
2022-09-17T05:42:12.260Z,99952.88
2022-09-17T05:45:14.908Z,99958.28
2022-09-17T05:48:18.086Z,99963.59
2022-09-17T05:51:20.724Z,99962.66
2022-09-17T05:54:23.996Z,99968.06
2022-09-17T05:57:29.906Z,99967.19
2022-09-17T06:00:32.926Z,99974.38
2022-09-17T06:03:35.986Z,99958.66
2022-09-17T06:06:39.213Z,99962.94
2022-09-17T06:09:42.618Z,99973.59
2022-09-17T06:12:47.086Z,99971.09
2022-09-17T06:15:54.762Z,99968.25
2022-09-17T06:18:57.713Z,99948.47
2022-09-17T06:22:00.842Z,99959.97
2022-09-17T06:25:04.133Z,99961.72
2022-09-17T06:28:08.631Z,99957.31
2022-09-17T06:31:13.243Z,99959.09
2022-09-17T06:34:15.980Z,99971.53
2022-09-17T06:37:18.670Z,99963.69
2022-09-17T06:40:23.291Z,99972.13
2022-09-17T06:43:28.069Z,99973.72
2022-09-17T06:46:30.821Z,99973.16
2022-09-17T06:49:33.613Z,99978.34
2022-09-17T06:52:36.334Z,99971.69
2022-09-17T06:55:39.323Z,99978.06
2022-09-17T06:58:44.351Z,99971.69
2022-09-17T07:01:48.607Z,99972.28
2022-09-17T07:04:51.746Z,99966.53
2022-09-17T07:07:54.776Z,99968.19
2022-09-17T07:10:58.947Z,99955.50
2022-09-17T07:14:03.599Z,99965.81
2022-09-17T07:17:07.289Z,99961.25
2022-09-17T07:20:11.280Z,99957.84
2022-09-17T07:23:13.907Z,99962.34
2022-09-17T07:26:17.546Z,99963.56
2022-09-17T07:29:23.656Z,99963.25
2022-09-17T07:32:27.341Z,99961.84
2022-09-17T07:35:29.987Z,99968.06
2022-09-17T07:38:36.016Z,99972.41
2022-09-17T07:41:38.849Z,99977.19
2022-09-17T07:44:42.944Z,99989.69
2022-09-17T07:47:45.620Z,99987.84
2022-09-17T07:50:49.080Z,99979.91
2022-09-17T07:53:52.762Z,99975.06
2022-09-17T07:56:56.052Z,99974.31
2022-09-17T08:00:00.063Z,99998.63
2022-09-17T08:03:03.424Z,99985.50
2022-09-17T08:06:08.181Z,99996.91
2022-09-17T08:09:10.853Z,99982.72
2022-09-17T08:12:13.815Z,99979.88
2022-09-17T08:15:19.588Z,99972.19
2022-09-17T08:18:22.400Z,99979.97
2022-09-17T08:21:25.923Z,99979.75
2022-09-17T08:24:28.636Z,99978.13
2022-09-17T08:27:32.101Z,99985.88
2022-09-17T08:30:36.167Z,99980.53
2022-09-17T08:33:40.644Z,99969.72
2022-09-17T08:36:43.359Z,99968.25
2022-09-17T08:39:45.984Z,99969.81
2022-09-17T08:42:57.402Z,99971.31
2022-09-17T08:46:01.704Z,99976.59
2022-09-17T08:49:15.408Z,99977.38
2022-09-17T08:52:47.265Z,99983.56
2022-09-17T08:55:56.959Z,99980.22
2022-09-17T08:59:09.386Z,99964.22
2022-09-17T09:02:24.198Z,99978.72
2022-09-17T09:05:33.248Z,99984.97
2022-09-17T09:08:40.926Z,99968.81
2022-09-17T09:11:45.048Z,99984.28
2022-09-17T09:14:52.038Z,99976.53
2022-09-17T09:18:00.771Z,99954.28
2022-09-17T09:21:17.531Z,99967.94
2022-09-17T09:24:26.191Z,99948.16
2022-09-17T09:27:30.294Z,99965.09
2022-09-17T09:30:50.932Z,99965.19
2022-09-17T09:33:55.167Z,99966.59
2022-09-17T09:37:17.223Z,99970.88
2022-09-17T09:40:31.634Z,99995.66
2022-09-17T09:43:59.910Z,100004.84
2022-09-17T09:47:27.861Z,100006.22
2022-09-17T09:51:05.574Z,100007.81
2022-09-17T09:54:26.782Z,100003.78
2022-09-17T09:57:40.744Z,100003.38
2022-09-17T10:00:43.860Z,99987.22
2022-09-17T10:03:47.055Z,99984.56
2022-09-17T10:06:53.401Z,99986.78
2022-09-17T10:10:10.021Z,99989.84
2022-09-17T10:13:15.149Z,99995.25
2022-09-17T10:16:20.560Z,99982.94
2022-09-17T10:19:25.766Z,99978.91
2022-09-17T10:22:32.805Z,99975.91
2022-09-17T10:25:36.352Z,99959.31
2022-09-17T10:28:47.865Z,99959.69
2022-09-17T10:31:52.715Z,99951.84
2022-09-17T10:35:00.396Z,99944.66
2022-09-17T10:38:04.416Z,99945.31
2022-09-17T10:41:13.579Z,99947.00
2022-09-17T10:44:19.096Z,99938.88
2022-09-17T10:47:25.437Z,99938.09
2022-09-17T10:50:30.199Z,99931.88
2022-09-17T10:53:55.250Z,99936.50
2022-09-17T10:57:01.649Z,99932.44
2022-09-17T11:00:13.257Z,99925.41
2022-09-17T11:03:46.943Z,99933.59
2022-09-17T11:07:01.641Z,99953.22
2022-09-17T11:10:12.407Z,99919.84
2022-09-17T11:13:25.085Z,99943.84
2022-09-17T11:16:40.227Z,99935.88
2022-09-17T11:19:50.975Z,99919.63
2022-09-17T11:23:07.357Z,99953.59
2022-09-17T11:26:25.042Z,99979.66
2022-09-17T11:29:45.577Z,99971.63
2022-09-17T11:33:16.609Z,99958.69
2022-09-17T11:36:25.382Z,99958.56
2022-09-17T11:39:34.214Z,99969.16
2022-09-17T11:42:45.711Z,99960.44
2022-09-17T11:45:57.744Z,99951.50
2022-09-17T11:49:05.087Z,99961.88
2022-09-17T11:52:13.035Z,99948.38
2022-09-17T11:55:23.939Z,99949.31
2022-09-17T11:58:36.484Z,99940.88
2022-09-17T12:01:47.170Z,99945.38
2022-09-17T12:04:57.282Z,99938.19
2022-09-17T12:08:12.478Z,99915.88
2022-09-17T12:11:22.512Z,99925.47
2022-09-17T12:14:32.305Z,99921.19
2022-09-17T12:17:40.853Z,99929.09
2022-09-17T12:20:48.075Z,99916.53
2022-09-17T12:23:55.822Z,99918.66
2022-09-17T12:27:07.409Z,99903.25
2022-09-17T12:30:16.482Z,99892.19
2022-09-17T12:33:33.600Z,99892.13
2022-09-17T12:36:50.217Z,99886.09
2022-09-17T12:40:19.517Z,99882.09
2022-09-17T12:43:41.579Z,99886.25
2022-09-17T12:47:01.639Z,99887.38
2022-09-17T12:50:15.863Z,99872.25
2022-09-17T12:53:27.809Z,99870.78
2022-09-17T12:56:45.818Z,99879.19
2022-09-17T12:59:53.754Z,99875.75
2022-09-17T13:03:05.925Z,99857.25
2022-09-17T13:06:26.465Z,99847.03
2022-09-17T13:09:57.544Z,99861.22
2022-09-17T13:13:10.676Z,99847.06
2022-09-17T13:16:20.097Z,99846.31
2022-09-17T13:19:35.173Z,99858.25
2022-09-17T13:22:46.580Z,99872.41
2022-09-17T13:26:01.997Z,99887.75
2022-09-17T13:29:11.119Z,99886.50
2022-09-17T13:32:53.987Z,99888.25
2022-09-17T13:36:00.885Z,99885.19
2022-09-17T13:39:12.879Z,99880.28
2022-09-17T13:42:21.104Z,99878.75
2022-09-17T13:45:25.455Z,99873.06
2022-09-17T13:48:30.583Z,99888.56
2022-09-17T13:51:54.741Z,99891.97
2022-09-17T13:54:57.830Z,99879.84
2022-09-17T13:58:01.795Z,99879.41
2022-09-17T14:01:06.365Z,99883.78
2022-09-17T14:04:49.492Z,99873.38
2022-09-17T14:08:07.061Z,99877.59
2022-09-17T14:11:38.186Z,99868.72
2022-09-17T14:14:51.836Z,99875.84
2022-09-17T14:17:54.657Z,99861.16
2022-09-17T14:21:12.642Z,99864.16
2022-09-17T14:24:23.651Z,99854.09
2022-09-17T14:27:51.779Z,99841.84
2022-09-17T14:30:54.601Z,99834.34
2022-09-17T14:33:57.577Z,99827.41
2022-09-17T14:37:00.890Z,99836.03
2022-09-17T14:40:09.901Z,99824.97
2022-09-17T14:43:20.989Z,99827.13
2022-09-17T14:46:25.672Z,99807.59
2022-09-17T14:49:30.531Z,99830.97
2022-09-17T14:52:33.923Z,99819.66
2022-09-17T14:55:42.041Z,99831.34
2022-09-17T14:58:49.089Z,99829.13
2022-09-17T15:01:51.999Z,99857.50
2022-09-17T15:04:55.009Z,99842.56
2022-09-17T15:08:16.087Z,99848.28
2022-09-17T15:11:21.011Z,99852.03
2022-09-17T15:14:28.377Z,99857.44
2022-09-17T15:17:33.400Z,99871.91
2022-09-17T15:20:36.412Z,99873.78
2022-09-17T15:23:39.611Z,99869.69
2022-09-17T15:26:46.275Z,99858.25
2022-09-17T15:29:52.240Z,99863.88
2022-09-17T15:32:56.861Z,99852.41
2022-09-17T15:36:02.011Z,99849.63
2022-09-17T15:39:33.109Z,99867.84
2022-09-17T15:42:35.830Z,99878.41
2022-09-17T15:45:39.898Z,99906.81
2022-09-17T15:48:42.557Z,99957.56
2022-09-17T15:51:45.214Z,99969.22
2022-09-17T15:54:50.205Z,99952.56
2022-09-17T15:57:53.231Z,99954.00
2022-09-17T16:01:41.198Z,99929.13
2022-09-17T16:04:44.364Z,99927.69
2022-09-17T16:07:47.796Z,99930.41
2022-09-17T16:10:52.952Z,99930.88
2022-09-17T16:13:58.362Z,99927.09
2022-09-17T16:17:11.011Z,99930.41
2022-09-17T16:20:18.455Z,99933.13
2022-09-17T16:23:21.622Z,99938.28
2022-09-17T16:26:30.870Z,99941.97
2022-09-17T16:29:33.838Z,99945.78
2022-09-17T16:32:36.571Z,99948.28
2022-09-17T16:35:39.550Z,99952.56
2022-09-17T16:38:42.219Z,99955.38
2022-09-17T16:41:46.324Z,99967.91
2022-09-17T16:44:49.101Z,99952.38
2022-09-17T16:47:51.725Z,99953.91
2022-09-17T16:50:54.423Z,99962.88
2022-09-17T16:53:57.726Z,99960.06
2022-09-17T16:57:02.235Z,99958.13
2022-09-17T17:00:07.615Z,99968.13
2022-09-17T17:03:12.905Z,99964.44
2022-09-17T17:06:16.796Z,99967.44
2022-09-17T17:09:19.464Z,99970.25
2022-09-17T17:12:23.572Z,100018.47
2022-09-17T17:15:27.098Z,100037.88
2022-09-17T17:18:30.412Z,100033.19
2022-09-17T17:21:33.016Z,100044.00
2022-09-17T17:24:35.630Z,100046.78
2022-09-17T17:27:40.202Z,100045.00
2022-09-17T17:30:42.958Z,100043.22
2022-09-17T17:33:46.551Z,100040.84
2022-09-17T17:36:49.836Z,100040.53
2022-09-17T17:39:52.618Z,100043.13
2022-09-17T17:42:56.673Z,100031.72
2022-09-17T17:45:59.356Z,100034.56
2022-09-17T17:49:02.133Z,100041.56
2022-09-17T17:52:04.807Z,100037.50
2022-09-17T17:55:08.677Z,100045.53
2022-09-17T17:58:12.655Z,100052.59
2022-09-17T18:01:17.570Z,100061.53
2022-09-17T18:04:20.240Z,100060.25
2022-09-17T18:07:22.907Z,100057.38
2022-09-17T18:10:25.684Z,100058.81
2022-09-17T18:13:29.790Z,100053.25
2022-09-17T18:16:33.533Z,100059.53
2022-09-17T18:19:36.193Z,100059.72
2022-09-17T18:22:38.863Z,100054.25
2022-09-17T18:25:41.551Z,100068.53
2022-09-17T18:28:45.994Z,100060.69
2022-09-17T18:31:48.982Z,100065.41
2022-09-17T18:34:52.199Z,100066.50
2022-09-17T18:37:54.885Z,100070.47
2022-09-17T18:40:58.209Z,100070.91
2022-09-17T18:44:02.577Z,100084.63
2022-09-17T18:47:05.443Z,100084.78
2022-09-17T18:50:08.850Z,100092.31
2022-09-17T18:53:11.581Z,100092.63
2022-09-17T18:56:17.889Z,100096.78
2022-09-17T18:59:21.875Z,100098.19
2022-09-17T19:02:24.655Z,100100.31
2022-09-17T19:05:27.319Z,100112.31
2022-09-17T19:08:30.121Z,100119.91
2022-09-17T19:11:32.967Z,100119.22
2022-09-17T19:14:37.237Z,100122.09
2022-09-17T19:17:39.864Z,100123.97
2022-09-17T19:20:42.501Z,100123.38
2022-09-17T19:23:46.661Z,100129.66
2022-09-17T19:26:51.038Z,100133.31
2022-09-17T19:29:57.752Z,100128.03
2022-09-17T19:33:01.398Z,100134.94
2022-09-17T19:36:06.433Z,100121.19
2022-09-17T19:39:09.123Z,100126.69
2022-09-17T19:42:12.020Z,100129.50
2022-09-17T19:45:16.399Z,100126.22
2022-09-17T19:48:23.134Z,100126.56
2022-09-17T19:51:30.232Z,100139.38
2022-09-17T19:54:32.865Z,100147.59
2022-09-17T19:57:36.086Z,100144.09
2022-09-17T20:00:40.381Z,100147.00
2022-09-17T20:03:45.013Z,100137.66
2022-09-17T20:06:47.703Z,100156.31
2022-09-17T20:09:51.121Z,100152.59
2022-09-17T20:12:53.795Z,100146.31
2022-09-17T20:16:04.209Z,100161.44
2022-09-17T20:19:07.947Z,100160.84
2022-09-17T20:22:10.650Z,100160.78
2022-09-17T20:25:13.726Z,100155.16
2022-09-17T20:28:16.737Z,100166.44
2022-09-17T20:31:23.690Z,100164.75
2022-09-17T20:34:26.824Z,100164.97
2022-09-17T20:38:16.070Z,100164.16
2022-09-17T20:40:53.067Z,100173.09
2022-09-17T20:43:55.948Z,100174.38
2022-09-17T20:47:01.957Z,100149.00
2022-09-17T20:50:04.969Z,100170.53
2022-09-17T20:53:08.041Z,100176.94
2022-09-17T20:56:12.658Z,100167.50
2022-09-17T20:59:19.032Z,100180.78
2022-09-17T21:02:23.630Z,100182.69
2022-09-17T21:05:26.326Z,100180.09
2022-09-17T21:08:29.807Z,100180.88
2022-09-17T21:11:32.851Z,100188.94
2022-09-17T21:14:35.624Z,100190.66
2022-09-17T21:17:40.707Z,100184.16
2022-09-17T21:20:43.446Z,100187.63
2022-09-17T21:23:46.150Z,100190.66
2022-09-17T21:26:49.722Z,100182.59
2022-09-17T21:29:52.361Z,100190.91
2022-09-17T21:32:57.565Z,100196.56
2022-09-17T21:36:05.600Z,100203.72
2022-09-17T21:39:12.379Z,100187.78
2022-09-17T21:42:15.042Z,100203.09
2022-09-17T21:45:17.825Z,100197.66
2022-09-17T21:48:22.229Z,100201.41
2022-09-17T21:51:30.270Z,100196.69
2022-09-17T21:54:33.054Z,100190.59
2022-09-17T21:57:36.377Z,100204.75
2022-09-17T22:00:39.035Z,100205.50
2022-09-17T22:03:45.204Z,100203.53
2022-09-17T22:06:49.325Z,100198.06
2022-09-17T22:09:52.397Z,100196.75
2022-09-17T22:12:55.023Z,100191.88
2022-09-17T22:15:59.037Z,100193.03
2022-09-17T22:19:04.011Z,100193.16
2022-09-17T22:22:06.681Z,100194.88
2022-09-17T22:25:11.029Z,100197.69
2022-09-17T22:28:21.287Z,100183.44
2022-09-17T22:31:24.921Z,100188.38
2022-09-17T22:34:29.806Z,100189.78
2022-09-17T22:37:32.529Z,100195.69
2022-09-17T22:40:37.142Z,100194.59
2022-09-17T22:43:40.184Z,100189.50
2022-09-17T22:46:44.048Z,100209.88
2022-09-17T22:49:48.087Z,100210.56
2022-09-17T22:52:51.148Z,100207.09
2022-09-17T22:55:57.505Z,100212.63
2022-09-17T22:59:00.467Z,100204.47
2022-09-17T23:02:03.253Z,100204.16
2022-09-17T23:05:08.336Z,100206.63
2022-09-17T23:08:11.069Z,100197.97
2022-09-17T23:11:18.710Z,100193.34
2022-09-17T23:14:21.779Z,100202.00
2022-09-17T23:17:28.719Z,100199.28
2022-09-17T23:20:35.920Z,100195.63
2022-09-17T23:23:38.604Z,100192.16
2022-09-17T23:26:41.688Z,100193.00
2022-09-17T23:29:44.370Z,100194.56
2022-09-17T23:32:47.508Z,100203.34
2022-09-17T23:35:52.509Z,100194.13
2022-09-17T23:38:57.645Z,100193.19
2022-09-17T23:42:00.331Z,100189.38
2022-09-17T23:45:03.497Z,100190.31
2022-09-17T23:48:06.172Z,100192.91
2022-09-17T23:51:11.213Z,100192.09
2022-09-17T23:54:14.003Z,100191.13
2022-09-17T23:57:16.770Z,100195.38
